Online since October of 2007


Active alerts


No alerts

Bigbaywx more information Bigbaywx


mount mesnard more information Mount Mesnard


visit our other weather sites:

Template documentation
and downloads

And another site


CBI


nearby metar reports

   
KSAW - Sawyer, Michigan
updated: Jan 27 2020 2:47 pm
light snow, overcast  
light snow, overcast  
   wind: north 11.5 mph
wind: north 11.5 mph
temperature: 28.4°F
wind chill: 17.6°F
dew point: 24.8°F
humidity: 86%
barometer: 29.93 inHg
clouds: overcast
visibility: 5 mi
cloud details: mostly cloudy 366 m,
overcast 518 m
KSAW 271947Z 36010KT 5SM -SN BKN012 OVC017 M02/M04 A2993
KESC - Escanaba, Michigan
updated: Jan 27 2020 2:56 pm
overcast  
overcast  
   wind: nnw 8.1 mph
wind: nnw 8.1 mph
temperature: 33.8°F
wind chill: 26.6°F
dew point: 26.6°F
humidity: 75%
barometer: 29.96 inHg
clouds: overcast
visibility: 10 mi
cloud details: mostly cloudy 610 m,
overcast 823 m
KESC 271956Z AUTO 34007KT 10SM BKN020 OVC027 01/M03 A2996 RMK AO2 RAB1858E10B40E49UPB49E51 SLP156 P0000 T00061028 FZRANO
KIMT - Iron Mountain, MI
updated: Jan 27 2020 2:54 pm
overcast  
overcast  
   wind: wnw 9.2 mph
wind: wnw 9.2 mph
temperature: 32°F
wind chill: 24.8°F
dew point: 23°F
humidity: 69%
barometer: 29.93 inHg
clouds: overcast
visibility: 10 mi
cloud details: mostly cloudy 701 m,
overcast 945 m
KIMT 271954Z AUTO 30008KT 10SM BKN023 OVC031 00/M05 A2993 RMK AO2 SLP151 T00001050
KGRB - Green Bay, WI
updated: Jan 27 2020 2:53 pm
overcast  
overcast  
   wind: nw 10.4 mph
wind: nw 10.4 mph
temperature: 33.8°F
wind chill: 26.6°F
dew point: 23°F
humidity: 65%
barometer: 29.98 inHg
clouds: overcast
visibility: 10 mi
cloud details: overcast 701 m
KGRB 271953Z 32009KT 10SM OVC023 01/M05 A2998 RMK AO2 SLP159 T00061050
KDET - Detroit, MI
updated: Jan 27 2020 2:53 pm
overcast  
overcast  
   wind: nnw 6.9 mph
wind: nnw 6.9 mph
temperature: 35.6°F
wind chill: 30.2°F
dew point: 28.4°F
humidity: 75%
barometer: 29.87 inHg
clouds: overcast
visibility: 10 mi
cloud details: overcast 549 m
KDET 271953Z 34006KT 10SM OVC018 02/M02 A2987 RMK AO2 SLP121 T00221017
 

script developed by  Saratoga-weather.org adapted for the template by  Weerstation Leuven

you find our weather info also at:

Weather Underground

midwestern weather network

WeatherlinkIP

Citizen Weather Observer Program (CWOP)

equipment we use:

weather-station
Davis VP2

weather-program
Davis Weatherlink.Com

Davis VP2

Davis Weatherlink.Com